Adelphia, New Jersey
Current Conditions -  °F | °C
As of 6:15 PM on Friday 31 Oct 2014 (Local Time) from KBLM Reporting Station
Overcast Overcast  
Wind Chill: 11°   Ceiling: 4500
Heat Index: 11°   Visibility: 10mi
Dew Point:   Wind: 5mph
Humidity: 62%   Direction: 360°N
Pressure: 29.88"   Gusts: NA
Location:  40.22°N, 74.26°W
Report Text: KBLM 312215Z AUTO 36004KT 10SM SCT035 BKN045 OVC050 11/04 A2988 RMK AO1
Loading
Personal Weather Stations






























Interactive Weather Map New forecast layout! Learn more

10-Day Weather Forecast

Advertisements
Track Severe Weather on mobile